sensor_id;sensor_type;location;lat;lon;timestamp;P1;durP1;ratioP1;P2;durP2;ratioP2
68800;SDS011;55784;50.734;7.086;2023-07-30T00:01:46;6.40;;;2.40;;
68800;SDS011;55784;50.734;7.086;2023-07-30T00:04:12;6.07;;;2.50;;
68800;SDS011;55784;50.734;7.086;2023-07-30T00:06:37;6.53;;;2.50;;
68800;SDS011;55784;50.734;7.086;2023-07-30T00:09:02;6.40;;;2.60;;
68800;SDS011;55784;50.734;7.086;2023-07-30T00:11:29;6.57;;;2.55;;
68800;SDS011;55784;50.734;7.086;2023-07-30T00:13:54;6.32;;;2.30;;
68800;SDS011;55784;50.734;7.086;2023-07-30T00:16:19;7.97;;;2.70;;
68800;SDS011;55784;50.734;7.086;2023-07-30T00:18:45;8.53;;;2.77;;
68800;SDS011;55784;50.734;7.086;2023-07-30T00:21:10;6.20;;;2.40;;
68800;SDS011;55784;50.734;7.086;2023-07-30T00:23:35;8.47;;;2.90;;
68800;SDS011;55784;50.734;7.086;2023-07-30T00:26:01;7.33;;;2.70;;
68800;SDS011;55784;50.734;7.086;2023-07-30T00:28:26;8.27;;;2.63;;
68800;SDS011;55784;50.734;7.086;2023-07-30T00:30:51;6.53;;;2.47;;
68800;SDS011;55784;50.734;7.086;2023-07-30T00:33:16;6.67;;;2.50;;
68800;SDS011;55784;50.734;7.086;2023-07-30T00:35:42;7.00;;;2.70;;
68800;SDS011;55784;50.734;7.086;2023-07-30T00:38:07;6.00;;;2.33;;
68800;SDS011;55784;50.734;7.086;2023-07-30T00:40:32;6.30;;;2.37;;
68800;SDS011;55784;50.734;7.086;2023-07-30T00:42:58;6.57;;;2.33;;
68800;SDS011;55784;50.734;7.086;2023-07-30T00:45:23;7.87;;;2.40;;
68800;SDS011;55784;50.734;7.086;2023-07-30T00:47:48;6.93;;;2.27;;
68800;SDS011;55784;50.734;7.086;2023-07-30T00:50:14;7.10;;;2.42;;
68800;SDS011;55784;50.734;7.086;2023-07-30T00:52:42;6.10;;;2.10;;
68800;SDS011;55784;50.734;7.086;2023-07-30T00:55:08;8.50;;;2.42;;
68800;SDS011;55784;50.734;7.086;2023-07-30T00:57:34;8.57;;;2.45;;
68800;SDS011;55784;50.734;7.086;2023-07-30T01:00:02;6.55;;;2.33;;
68800;SDS011;55784;50.734;7.086;2023-07-30T01:02:31;6.18;;;2.20;;
68800;SDS011;55784;50.734;7.086;2023-07-30T01:04:56;6.20;;;2.17;;
68800;SDS011;55784;50.734;7.086;2023-07-30T01:07:22;6.50;;;2.20;;
68800;SDS011;55784;50.734;7.086;2023-07-30T01:09:48;6.40;;;2.10;;
68800;SDS011;55784;50.734;7.086;2023-07-30T01:12:13;5.68;;;2.20;;
68800;SDS011;55784;50.734;7.086;2023-07-30T01:14:39;6.30;;;2.33;;
68800;SDS011;55784;50.734;7.086;2023-07-30T01:17:05;7.88;;;2.60;;
68800;SDS011;55784;50.734;7.086;2023-07-30T01:19:30;7.60;;;2.40;;
68800;SDS011;55784;50.734;7.086;2023-07-30T01:21:56;6.50;;;2.40;;
68800;SDS011;55784;50.734;7.086;2023-07-30T01:24:21;7.37;;;2.37;;
68800;SDS011;55784;50.734;7.086;2023-07-30T01:26:57;6.37;;;2.17;;
68800;SDS011;55784;50.734;7.086;2023-07-30T01:29:32;6.73;;;2.20;;
68800;SDS011;55784;50.734;7.086;2023-07-30T01:32:04;7.35;;;2.40;;
68800;SDS011;55784;50.734;7.086;2023-07-30T01:34:31;8.10;;;2.10;;
68800;SDS011;55784;50.734;7.086;2023-07-30T01:37:00;6.43;;;2.17;;
68800;SDS011;55784;50.734;7.086;2023-07-30T01:39:26;6.80;;;2.13;;
68800;SDS011;55784;50.734;7.086;2023-07-30T01:41:55;5.80;;;2.07;;
68800;SDS011;55784;50.734;7.086;2023-07-30T01:44:20;6.95;;;1.98;;
68800;SDS011;55784;50.734;7.086;2023-07-30T01:46:45;5.73;;;2.07;;
68800;SDS011;55784;50.734;7.086;2023-07-30T01:49:11;6.10;;;2.17;;
68800;SDS011;55784;50.734;7.086;2023-07-30T01:51:36;6.30;;;2.10;;
68800;SDS011;55784;50.734;7.086;2023-07-30T01:54:01;7.83;;;2.17;;
68800;SDS011;55784;50.734;7.086;2023-07-30T01:56:27;6.83;;;2.00;;
68800;SDS011;55784;50.734;7.086;2023-07-30T01:58:52;6.03;;;1.90;;
68800;SDS011;55784;50.734;7.086;2023-07-30T02:01:17;6.17;;;2.20;;
68800;SDS011;55784;50.734;7.086;2023-07-30T02:03:42;6.47;;;1.93;;
68800;SDS011;55784;50.734;7.086;2023-07-30T02:06:08;6.47;;;1.90;;
68800;SDS011;55784;50.734;7.086;2023-07-30T02:08:33;5.63;;;1.90;;
68800;SDS011;55784;50.734;7.086;2023-07-30T02:10:59;5.80;;;2.00;;
68800;SDS011;55784;50.734;7.086;2023-07-30T02:13:24;6.13;;;1.63;;
68800;SDS011;55784;50.734;7.086;2023-07-30T02:15:50;5.43;;;1.67;;
68800;SDS011;55784;50.734;7.086;2023-07-30T02:18:15;5.73;;;1.70;;
68800;SDS011;55784;50.734;7.086;2023-07-30T02:20:40;8.05;;;1.90;;
68800;SDS011;55784;50.734;7.086;2023-07-30T02:23:06;6.53;;;1.90;;
68800;SDS011;55784;50.734;7.086;2023-07-30T02:25:32;5.28;;;1.70;;
68800;SDS011;55784;50.734;7.086;2023-07-30T02:27:58;5.60;;;1.70;;
68800;SDS011;55784;50.734;7.086;2023-07-30T02:30:24;5.32;;;1.80;;
68800;SDS011;55784;50.734;7.086;2023-07-30T02:32:50;5.23;;;1.60;;
68800;SDS011;55784;50.734;7.086;2023-07-30T02:35:15;5.93;;;1.60;;
68800;SDS011;55784;50.734;7.086;2023-07-30T02:37:40;4.80;;;1.50;;
68800;SDS011;55784;50.734;7.086;2023-07-30T02:40:06;5.93;;;1.80;;
68800;SDS011;55784;50.734;7.086;2023-07-30T02:42:32;5.32;;;1.65;;
68800;SDS011;55784;50.734;7.086;2023-07-30T02:44:57;5.00;;;1.50;;
68800;SDS011;55784;50.734;7.086;2023-07-30T02:47:22;6.77;;;1.70;;
68800;SDS011;55784;50.734;7.086;2023-07-30T02:49:48;5.93;;;1.73;;
68800;SDS011;55784;50.734;7.086;2023-07-30T02:52:13;4.90;;;1.52;;
68800;SDS011;55784;50.734;7.086;2023-07-30T02:54:38;4.30;;;1.40;;
68800;SDS011;55784;50.734;7.086;2023-07-30T02:57:04;5.83;;;1.80;;
68800;SDS011;55784;50.734;7.086;2023-07-30T02:59:29;5.27;;;1.70;;
68800;SDS011;55784;50.734;7.086;2023-07-30T03:01:54;5.03;;;1.50;;
68800;SDS011;55784;50.734;7.086;2023-07-30T03:04:20;5.10;;;1.60;;
68800;SDS011;55784;50.734;7.086;2023-07-30T03:06:45;5.43;;;1.50;;
68800;SDS011;55784;50.734;7.086;2023-07-30T03:09:10;5.23;;;1.40;;
68800;SDS011;55784;50.734;7.086;2023-07-30T03:11:36;5.80;;;1.70;;
68800;SDS011;55784;50.734;7.086;2023-07-30T03:14:01;5.70;;;1.57;;
68800;SDS011;55784;50.734;7.086;2023-07-30T03:16:26;4.93;;;1.53;;
68800;SDS011;55784;50.734;7.086;2023-07-30T03:18:51;6.60;;;1.80;;
68800;SDS011;55784;50.734;7.086;2023-07-30T03:21:17;7.33;;;1.60;;
68800;SDS011;55784;50.734;7.086;2023-07-30T03:23:42;5.50;;;1.60;;
68800;SDS011;55784;50.734;7.086;2023-07-30T03:26:09;6.97;;;1.65;;
68800;SDS011;55784;50.734;7.086;2023-07-30T03:28:35;6.35;;;1.85;;
68800;SDS011;55784;50.734;7.086;2023-07-30T03:31:00;6.90;;;1.53;;
68800;SDS011;55784;50.734;7.086;2023-07-30T03:33:25;5.93;;;1.40;;
68800;SDS011;55784;50.734;7.086;2023-07-30T03:35:51;6.23;;;1.80;;
68800;SDS011;55784;50.734;7.086;2023-07-30T03:38:16;7.23;;;1.90;;
68800;SDS011;55784;50.734;7.086;2023-07-30T03:40:41;6.27;;;1.50;;
68800;SDS011;55784;50.734;7.086;2023-07-30T03:43:07;7.23;;;1.50;;
68800;SDS011;55784;50.734;7.086;2023-07-30T03:45:32;7.30;;;1.70;;
68800;SDS011;55784;50.734;7.086;2023-07-30T03:47:58;6.10;;;1.60;;
68800;SDS011;55784;50.734;7.086;2023-07-30T03:50:23;6.43;;;1.60;;
68800;SDS011;55784;50.734;7.086;2023-07-30T03:52:48;5.93;;;1.70;;
68800;SDS011;55784;50.734;7.086;2023-07-30T03:55:13;6.17;;;1.60;;
68800;SDS011;55784;50.734;7.086;2023-07-30T03:57:39;7.40;;;1.50;;
68800;SDS011;55784;50.734;7.086;2023-07-30T04:00:04;8.27;;;1.60;;
68800;SDS011;55784;50.734;7.086;2023-07-30T04:02:30;7.10;;;1.55;;
68800;SDS011;55784;50.734;7.086;2023-07-30T04:04:55;5.77;;;1.40;;
68800;SDS011;55784;50.734;7.086;2023-07-30T04:07:21;5.27;;;1.43;;
68800;SDS011;55784;50.734;7.086;2023-07-30T04:09:46;5.07;;;1.50;;
68800;SDS011;55784;50.734;7.086;2023-07-30T04:12:11;6.40;;;1.60;;
68800;SDS011;55784;50.734;7.086;2023-07-30T04:14:37;5.03;;;1.40;;
68800;SDS011;55784;50.734;7.086;2023-07-30T04:17:02;8.63;;;1.67;;
68800;SDS011;55784;50.734;7.086;2023-07-30T04:19:27;5.10;;;1.40;;
68800;SDS011;55784;50.734;7.086;2023-07-30T04:21:53;7.27;;;1.60;;
68800;SDS011;55784;50.734;7.086;2023-07-30T04:24:18;6.80;;;1.80;;
68800;SDS011;55784;50.734;7.086;2023-07-30T04:26:43;6.60;;;1.60;;
68800;SDS011;55784;50.734;7.086;2023-07-30T04:29:09;8.37;;;1.90;;
68800;SDS011;55784;50.734;7.086;2023-07-30T04:31:35;6.40;;;1.70;;
68800;SDS011;55784;50.734;7.086;2023-07-30T04:34:00;5.97;;;1.60;;
68800;SDS011;55784;50.734;7.086;2023-07-30T04:36:26;6.13;;;1.73;;
68800;SDS011;55784;50.734;7.086;2023-07-30T04:38:51;5.33;;;1.60;;
68800;SDS011;55784;50.734;7.086;2023-07-30T04:41:16;5.43;;;1.50;;
68800;SDS011;55784;50.734;7.086;2023-07-30T04:43:43;5.57;;;1.60;;
68800;SDS011;55784;50.734;7.086;2023-07-30T04:46:08;7.37;;;1.80;;
68800;SDS011;55784;50.734;7.086;2023-07-30T04:48:34;4.53;;;1.37;;
68800;SDS011;55784;50.734;7.086;2023-07-30T04:50:59;6.73;;;1.60;;
68800;SDS011;55784;50.734;7.086;2023-07-30T04:53:24;4.70;;;1.40;;
68800;SDS011;55784;50.734;7.086;2023-07-30T04:55:54;5.47;;;1.20;;
68800;SDS011;55784;50.734;7.086;2023-07-30T04:58:20;5.88;;;1.60;;
68800;SDS011;55784;50.734;7.086;2023-07-30T05:00:46;7.37;;;1.60;;
68800;SDS011;55784;50.734;7.086;2023-07-30T05:03:11;5.83;;;1.20;;
68800;SDS011;55784;50.734;7.086;2023-07-30T05:05:36;8.47;;;1.30;;
68800;SDS011;55784;50.734;7.086;2023-07-30T05:08:01;5.27;;;1.20;;
68800;SDS011;55784;50.734;7.086;2023-07-30T05:10:27;5.10;;;1.47;;
68800;SDS011;55784;50.734;7.086;2023-07-30T05:12:52;6.53;;;1.30;;
68800;SDS011;55784;50.734;7.086;2023-07-30T05:15:17;5.17;;;1.20;;
68800;SDS011;55784;50.734;7.086;2023-07-30T05:17:43;5.70;;;1.27;;
68800;SDS011;55784;50.734;7.086;2023-07-30T05:20:08;6.80;;;1.30;;
68800;SDS011;55784;50.734;7.086;2023-07-30T05:22:34;6.40;;;1.23;;
68800;SDS011;55784;50.734;7.086;2023-07-30T05:24:59;6.77;;;1.53;;
68800;SDS011;55784;50.734;7.086;2023-07-30T05:27:24;5.90;;;1.20;;
68800;SDS011;55784;50.734;7.086;2023-07-30T05:29:50;6.70;;;1.33;;
68800;SDS011;55784;50.734;7.086;2023-07-30T05:32:15;8.27;;;1.40;;
68800;SDS011;55784;50.734;7.086;2023-07-30T05:34:40;6.83;;;1.20;;
68800;SDS011;55784;50.734;7.086;2023-07-30T05:37:06;5.57;;;1.33;;
68800;SDS011;55784;50.734;7.086;2023-07-30T05:39:31;6.33;;;1.30;;
68800;SDS011;55784;50.734;7.086;2023-07-30T05:41:56;7.23;;;1.30;;
68800;SDS011;55784;50.734;7.086;2023-07-30T05:44:21;7.43;;;1.60;;
68800;SDS011;55784;50.734;7.086;2023-07-30T05:46:47;6.53;;;1.27;;
68800;SDS011;55784;50.734;7.086;2023-07-30T05:49:12;6.77;;;1.20;;
68800;SDS011;55784;50.734;7.086;2023-07-30T05:51:39;6.17;;;1.37;;
68800;SDS011;55784;50.734;7.086;2023-07-30T05:54:05;9.55;;;1.60;;
68800;SDS011;55784;50.734;7.086;2023-07-30T05:56:30;6.60;;;1.40;;
68800;SDS011;55784;50.734;7.086;2023-07-30T05:58:55;7.67;;;1.50;;
68800;SDS011;55784;50.734;7.086;2023-07-30T06:01:21;8.07;;;1.30;;
68800;SDS011;55784;50.734;7.086;2023-07-30T06:03:46;9.13;;;1.70;;
68800;SDS011;55784;50.734;7.086;2023-07-30T06:06:11;6.40;;;1.30;;
68800;SDS011;55784;50.734;7.086;2023-07-30T06:08:36;5.57;;;1.33;;
68800;SDS011;55784;50.734;7.086;2023-07-30T06:11:02;5.67;;;1.30;;
68800;SDS011;55784;50.734;7.086;2023-07-30T06:13:28;5.78;;;1.20;;
68800;SDS011;55784;50.734;7.086;2023-07-30T06:15:54;8.60;;;1.42;;
68800;SDS011;55784;50.734;7.086;2023-07-30T06:18:20;7.03;;;1.33;;
68800;SDS011;55784;50.734;7.086;2023-07-30T06:20:45;6.47;;;1.47;;
68800;SDS011;55784;50.734;7.086;2023-07-30T06:23:10;7.60;;;1.60;;
68800;SDS011;55784;50.734;7.086;2023-07-30T06:25:36;6.50;;;1.33;;
68800;SDS011;55784;50.734;7.086;2023-07-30T06:28:01;5.00;;;1.40;;
68800;SDS011;55784;50.734;7.086;2023-07-30T06:30:26;7.10;;;1.50;;
68800;SDS011;55784;50.734;7.086;2023-07-30T06:32:52;8.10;;;1.60;;
68800;SDS011;55784;50.734;7.086;2023-07-30T06:35:17;6.93;;;1.63;;
68800;SDS011;55784;50.734;7.086;2023-07-30T06:37:42;5.50;;;1.33;;
68800;SDS011;55784;50.734;7.086;2023-07-30T06:40:08;8.23;;;1.67;;
68800;SDS011;55784;50.734;7.086;2023-07-30T06:42:33;8.80;;;1.77;;
68800;SDS011;55784;50.734;7.086;2023-07-30T06:44:58;7.60;;;1.67;;
68800;SDS011;55784;50.734;7.086;2023-07-30T06:47:24;6.53;;;1.40;;
68800;SDS011;55784;50.734;7.086;2023-07-30T06:49:49;6.87;;;1.50;;
68800;SDS011;55784;50.734;7.086;2023-07-30T06:52:14;6.97;;;1.50;;
68800;SDS011;55784;50.734;7.086;2023-07-30T06:54:40;5.93;;;1.50;;
68800;SDS011;55784;50.734;7.086;2023-07-30T06:57:05;6.77;;;1.40;;
68800;SDS011;55784;50.734;7.086;2023-07-30T06:59:30;6.70;;;1.77;;
68800;SDS011;55784;50.734;7.086;2023-07-30T07:01:56;6.83;;;1.60;;
68800;SDS011;55784;50.734;7.086;2023-07-30T07:04:21;7.03;;;1.50;;
68800;SDS011;55784;50.734;7.086;2023-07-30T07:06:46;9.43;;;2.70;;
68800;SDS011;55784;50.734;7.086;2023-07-30T07:09:12;5.77;;;1.80;;
68800;SDS011;55784;50.734;7.086;2023-07-30T07:11:37;7.27;;;1.80;;
68800;SDS011;55784;50.734;7.086;2023-07-30T07:14:02;6.10;;;1.50;;
68800;SDS011;55784;50.734;7.086;2023-07-30T07:16:28;7.53;;;1.73;;
68800;SDS011;55784;50.734;7.086;2023-07-30T07:18:53;7.67;;;1.60;;
68800;SDS011;55784;50.734;7.086;2023-07-30T07:21:18;6.00;;;1.70;;
68800;SDS011;55784;50.734;7.086;2023-07-30T07:23:45;6.47;;;1.60;;
68800;SDS011;55784;50.734;7.086;2023-07-30T07:26:10;6.60;;;1.50;;
68800;SDS011;55784;50.734;7.086;2023-07-30T07:28:35;5.60;;;1.60;;
68800;SDS011;55784;50.734;7.086;2023-07-30T07:31:01;6.07;;;1.90;;
68800;SDS011;55784;50.734;7.086;2023-07-30T07:33:26;6.17;;;1.70;;
68800;SDS011;55784;50.734;7.086;2023-07-30T07:35:52;7.90;;;1.53;;
68800;SDS011;55784;50.734;7.086;2023-07-30T07:38:27;6.80;;;1.70;;
68800;SDS011;55784;50.734;7.086;2023-07-30T07:40:52;8.20;;;1.87;;
68800;SDS011;55784;50.734;7.086;2023-07-30T07:43:18;5.83;;;1.50;;
68800;SDS011;55784;50.734;7.086;2023-07-30T07:45:43;6.67;;;1.60;;
68800;SDS011;55784;50.734;7.086;2023-07-30T07:48:08;5.70;;;1.60;;
68800;SDS011;55784;50.734;7.086;2023-07-30T07:50:34;6.97;;;1.63;;
68800;SDS011;55784;50.734;7.086;2023-07-30T07:52:59;6.28;;;1.70;;
68800;SDS011;55784;50.734;7.086;2023-07-30T07:55:24;5.60;;;1.73;;
68800;SDS011;55784;50.734;7.086;2023-07-30T07:57:49;7.17;;;1.80;;
68800;SDS011;55784;50.734;7.086;2023-07-30T08:00:15;5.30;;;1.57;;
68800;SDS011;55784;50.734;7.086;2023-07-30T08:02:40;7.23;;;1.60;;
68800;SDS011;55784;50.734;7.086;2023-07-30T08:05:06;6.23;;;1.70;;
68800;SDS011;55784;50.734;7.086;2023-07-30T08:07:32;6.22;;;1.50;;
68800;SDS011;55784;50.734;7.086;2023-07-30T08:09:57;6.53;;;1.50;;
68800;SDS011;55784;50.734;7.086;2023-07-30T08:12:23;7.53;;;1.63;;
68800;SDS011;55784;50.734;7.086;2023-07-30T08:14:48;6.03;;;1.65;;
68800;SDS011;55784;50.734;7.086;2023-07-30T08:17:13;6.23;;;1.50;;
68800;SDS011;55784;50.734;7.086;2023-07-30T08:19:38;6.07;;;1.77;;
68800;SDS011;55784;50.734;7.086;2023-07-30T08:22:04;6.53;;;1.63;;
68800;SDS011;55784;50.734;7.086;2023-07-30T08:24:29;6.53;;;1.60;;
68800;SDS011;55784;50.734;7.086;2023-07-30T08:26:54;5.20;;;1.50;;
68800;SDS011;55784;50.734;7.086;2023-07-30T08:29:20;5.97;;;1.60;;
68800;SDS011;55784;50.734;7.086;2023-07-30T08:31:45;6.17;;;1.60;;
68800;SDS011;55784;50.734;7.086;2023-07-30T08:34:10;5.87;;;1.43;;
68800;SDS011;55784;50.734;7.086;2023-07-30T08:36:36;6.73;;;1.50;;
68800;SDS011;55784;50.734;7.086;2023-07-30T08:39:01;5.67;;;1.30;;
68800;SDS011;55784;50.734;7.086;2023-07-30T08:41:29;5.35;;;1.42;;
68800;SDS011;55784;50.734;7.086;2023-07-30T08:43:54;4.87;;;1.50;;
68800;SDS011;55784;50.734;7.086;2023-07-30T08:46:20;6.20;;;1.50;;
68800;SDS011;55784;50.734;7.086;2023-07-30T08:48:45;7.40;;;1.40;;
68800;SDS011;55784;50.734;7.086;2023-07-30T08:51:11;6.03;;;1.33;;
68800;SDS011;55784;50.734;7.086;2023-07-30T08:53:37;9.00;;;1.60;;
68800;SDS011;55784;50.734;7.086;2023-07-30T08:56:03;7.90;;;1.93;;
68800;SDS011;55784;50.734;7.086;2023-07-30T08:58:31;8.45;;;1.60;;
68800;SDS011;55784;50.734;7.086;2023-07-30T09:00:58;6.65;;;1.40;;
68800;SDS011;55784;50.734;7.086;2023-07-30T09:03:26;7.22;;;1.42;;
68800;SDS011;55784;50.734;7.086;2023-07-30T09:05:54;6.68;;;1.55;;
68800;SDS011;55784;50.734;7.086;2023-07-30T09:08:19;6.90;;;1.47;;
68800;SDS011;55784;50.734;7.086;2023-07-30T09:10:46;7.50;;;1.60;;
68800;SDS011;55784;50.734;7.086;2023-07-30T09:13:11;8.30;;;1.43;;
68800;SDS011;55784;50.734;7.086;2023-07-30T09:15:37;6.60;;;1.30;;
68800;SDS011;55784;50.734;7.086;2023-07-30T09:18:03;7.63;;;1.48;;
68800;SDS011;55784;50.734;7.086;2023-07-30T09:20:39;6.97;;;1.60;;
68800;SDS011;55784;50.734;7.086;2023-07-30T09:23:06;8.35;;;1.38;;
68800;SDS011;55784;50.734;7.086;2023-07-30T09:25:32;7.57;;;1.60;;
68800;SDS011;55784;50.734;7.086;2023-07-30T09:27:58;8.90;;;1.60;;
68800;SDS011;55784;50.734;7.086;2023-07-30T09:30:24;7.93;;;1.80;;
68800;SDS011;55784;50.734;7.086;2023-07-30T09:32:52;7.68;;;1.55;;
68800;SDS011;55784;50.734;7.086;2023-07-30T09:35:18;7.32;;;1.70;;
68800;SDS011;55784;50.734;7.086;2023-07-30T09:37:44;8.63;;;1.70;;
68800;SDS011;55784;50.734;7.086;2023-07-30T09:40:10;5.93;;;1.50;;
68800;SDS011;55784;50.734;7.086;2023-07-30T09:42:44;5.70;;;1.37;;
68800;SDS011;55784;50.734;7.086;2023-07-30T09:45:16;6.95;;;1.20;;
68800;SDS011;55784;50.734;7.086;2023-07-30T09:47:48;8.02;;;1.30;;
68800;SDS011;55784;50.734;7.086;2023-07-30T09:50:14;7.22;;;1.40;;
68800;SDS011;55784;50.734;7.086;2023-07-30T09:52:40;5.10;;;1.20;;
68800;SDS011;55784;50.734;7.086;2023-07-30T09:55:07;5.40;;;1.10;;
68800;SDS011;55784;50.734;7.086;2023-07-30T09:57:32;8.85;;;1.67;;
68800;SDS011;55784;50.734;7.086;2023-07-30T09:59:58;6.00;;;1.20;;
68800;SDS011;55784;50.734;7.086;2023-07-30T10:02:23;4.17;;;1.03;;
68800;SDS011;55784;50.734;7.086;2023-07-30T10:04:49;7.93;;;1.40;;
68800;SDS011;55784;50.734;7.086;2023-07-30T10:07:18;8.73;;;1.40;;
68800;SDS011;55784;50.734;7.086;2023-07-30T10:09:45;7.53;;;1.30;;
68800;SDS011;55784;50.734;7.086;2023-07-30T10:12:14;5.47;;;1.30;;
68800;SDS011;55784;50.734;7.086;2023-07-30T10:14:41;6.20;;;1.20;;
68800;SDS011;55784;50.734;7.086;2023-07-30T10:17:09;8.15;;;1.40;;
68800;SDS011;55784;50.734;7.086;2023-07-30T10:19:35;5.68;;;1.20;;
68800;SDS011;55784;50.734;7.086;2023-07-30T10:24:39;4.85;;;1.00;;
68800;SDS011;55784;50.734;7.086;2023-07-30T10:27:05;6.43;;;1.20;;
68800;SDS011;55784;50.734;7.086;2023-07-30T10:29:32;6.95;;;1.33;;
68800;SDS011;55784;50.734;7.086;2023-07-30T10:32:00;6.70;;;1.50;;
68800;SDS011;55784;50.734;7.086;2023-07-30T10:34:26;6.97;;;1.30;;
68800;SDS011;55784;50.734;7.086;2023-07-30T10:37:07;8.07;;;1.17;;
68800;SDS011;55784;50.734;7.086;2023-07-30T10:39:33;4.75;;;1.10;;
68800;SDS011;55784;50.734;7.086;2023-07-30T10:41:59;5.63;;;1.03;;
68800;SDS011;55784;50.734;7.086;2023-07-30T10:44:26;5.00;;;1.02;;
68800;SDS011;55784;50.734;7.086;2023-07-30T10:46:54;4.90;;;1.10;;
68800;SDS011;55784;50.734;7.086;2023-07-30T10:49:21;5.13;;;1.10;;
68800;SDS011;55784;50.734;7.086;2023-07-30T10:51:47;5.40;;;1.10;;
68800;SDS011;55784;50.734;7.086;2023-07-30T10:54:12;4.93;;;1.10;;
68800;SDS011;55784;50.734;7.086;2023-07-30T10:56:38;5.60;;;1.15;;
68800;SDS011;55784;50.734;7.086;2023-07-30T10:59:05;6.13;;;1.30;;
68800;SDS011;55784;50.734;7.086;2023-07-30T11:01:35;5.50;;;1.10;;
68800;SDS011;55784;50.734;7.086;2023-07-30T11:04:16;5.13;;;1.08;;
68800;SDS011;55784;50.734;7.086;2023-07-30T11:06:46;5.47;;;1.10;;
68800;SDS011;55784;50.734;7.086;2023-07-30T11:09:26;5.88;;;1.92;;
68800;SDS011;55784;50.734;7.086;2023-07-30T11:11:53;5.73;;;1.10;;
68800;SDS011;55784;50.734;7.086;2023-07-30T11:14:21;5.13;;;1.00;;
68800;SDS011;55784;50.734;7.086;2023-07-30T11:16:57;6.88;;;1.20;;
68800;SDS011;55784;50.734;7.086;2023-07-30T11:19:24;7.03;;;1.40;;
68800;SDS011;55784;50.734;7.086;2023-07-30T11:21:53;5.32;;;1.08;;
68800;SDS011;55784;50.734;7.086;2023-07-30T11:24:19;4.10;;;0.93;;
68800;SDS011;55784;50.734;7.086;2023-07-30T11:26:46;5.15;;;0.98;;
68800;SDS011;55784;50.734;7.086;2023-07-30T11:29:21;6.30;;;1.40;;
68800;SDS011;55784;50.734;7.086;2023-07-30T11:31:47;5.00;;;1.40;;
68800;SDS011;55784;50.734;7.086;2023-07-30T11:34:12;5.70;;;1.33;;
68800;SDS011;55784;50.734;7.086;2023-07-30T11:36:39;4.63;;;1.05;;
68800;SDS011;55784;50.734;7.086;2023-07-30T11:39:06;6.05;;;1.08;;
68800;SDS011;55784;50.734;7.086;2023-07-30T11:41:32;5.57;;;1.10;;
68800;SDS011;55784;50.734;7.086;2023-07-30T11:43:58;4.83;;;1.10;;
68800;SDS011;55784;50.734;7.086;2023-07-30T11:46:23;5.10;;;1.00;;
68800;SDS011;55784;50.734;7.086;2023-07-30T11:48:49;5.60;;;1.00;;
68800;SDS011;55784;50.734;7.086;2023-07-30T11:53:51;6.07;;;1.10;;
68800;SDS011;55784;50.734;7.086;2023-07-30T11:58:57;4.55;;;1.10;;
68800;SDS011;55784;50.734;7.086;2023-07-30T12:01:25;4.93;;;1.13;;
68800;SDS011;55784;50.734;7.086;2023-07-30T12:03:55;6.90;;;1.02;;
68800;SDS011;55784;50.734;7.086;2023-07-30T12:06:21;3.90;;;0.80;;
68800;SDS011;55784;50.734;7.086;2023-07-30T12:08:50;3.80;;;0.90;;
68800;SDS011;55784;50.734;7.086;2023-07-30T12:11:16;4.53;;;0.90;;
68800;SDS011;55784;50.734;7.086;2023-07-30T12:13:45;3.35;;;0.85;;
68800;SDS011;55784;50.734;7.086;2023-07-30T12:16:11;5.18;;;1.00;;
68800;SDS011;55784;50.734;7.086;2023-07-30T12:18:37;6.47;;;1.17;;
68800;SDS011;55784;50.734;7.086;2023-07-30T12:21:04;6.00;;;1.00;;
68800;SDS011;55784;50.734;7.086;2023-07-30T12:23:32;3.65;;;1.00;;
68800;SDS011;55784;50.734;7.086;2023-07-30T12:25:58;4.20;;;0.90;;
68800;SDS011;55784;50.734;7.086;2023-07-30T12:28:23;5.23;;;1.10;;
68800;SDS011;55784;50.734;7.086;2023-07-30T12:30:48;5.37;;;1.00;;
68800;SDS011;55784;50.734;7.086;2023-07-30T12:33:14;3.63;;;1.00;;
68800;SDS011;55784;50.734;7.086;2023-07-30T12:35:39;4.13;;;0.70;;
68800;SDS011;55784;50.734;7.086;2023-07-30T12:38:04;6.20;;;1.20;;
68800;SDS011;55784;50.734;7.086;2023-07-30T12:40:30;7.13;;;1.10;;
68800;SDS011;55784;50.734;7.086;2023-07-30T12:43:00;4.50;;;0.95;;
68800;SDS011;55784;50.734;7.086;2023-07-30T12:45:26;4.75;;;0.90;;
68800;SDS011;55784;50.734;7.086;2023-07-30T12:47:52;4.97;;;1.00;;
68800;SDS011;55784;50.734;7.086;2023-07-30T12:50:17;6.27;;;1.00;;
68800;SDS011;55784;50.734;7.086;2023-07-30T12:52:42;3.80;;;0.93;;
68800;SDS011;55784;50.734;7.086;2023-07-30T12:55:08;4.47;;;1.20;;
68800;SDS011;55784;50.734;7.086;2023-07-30T12:57:34;5.43;;;1.10;;
68800;SDS011;55784;50.734;7.086;2023-07-30T13:00:00;7.32;;;1.30;;
68800;SDS011;55784;50.734;7.086;2023-07-30T13:02:25;3.93;;;1.00;;
68800;SDS011;55784;50.734;7.086;2023-07-30T13:04:50;5.73;;;1.23;;
68800;SDS011;55784;50.734;7.086;2023-07-30T13:07:15;5.83;;;1.17;;
68800;SDS011;55784;50.734;7.086;2023-07-30T13:09:41;5.63;;;1.20;;
68800;SDS011;55784;50.734;7.086;2023-07-30T13:12:06;5.03;;;1.20;;
68800;SDS011;55784;50.734;7.086;2023-07-30T13:14:32;4.90;;;1.17;;
68800;SDS011;55784;50.734;7.086;2023-07-30T13:16:57;5.47;;;1.17;;
68800;SDS011;55784;50.734;7.086;2023-07-30T13:19:22;3.57;;;0.90;;
68800;SDS011;55784;50.734;7.086;2023-07-30T13:21:47;5.73;;;0.90;;
68800;SDS011;55784;50.734;7.086;2023-07-30T13:24:13;4.90;;;0.90;;
68800;SDS011;55784;50.734;7.086;2023-07-30T13:26:38;4.22;;;1.10;;
68800;SDS011;55784;50.734;7.086;2023-07-30T13:29:03;7.10;;;1.20;;
68800;SDS011;55784;50.734;7.086;2023-07-30T13:31:29;6.33;;;1.10;;
68800;SDS011;55784;50.734;7.086;2023-07-30T13:33:55;4.63;;;0.98;;
68800;SDS011;55784;50.734;7.086;2023-07-30T13:36:20;5.40;;;1.20;;
68800;SDS011;55784;50.734;7.086;2023-07-30T13:38:46;4.77;;;1.20;;
68800;SDS011;55784;50.734;7.086;2023-07-30T13:41:11;5.43;;;1.20;;
68800;SDS011;55784;50.734;7.086;2023-07-30T13:43:36;4.03;;;1.10;;
68800;SDS011;55784;50.734;7.086;2023-07-30T13:46:02;5.57;;;1.02;;
68800;SDS011;55784;50.734;7.086;2023-07-30T13:48:27;5.63;;;1.07;;
68800;SDS011;55784;50.734;7.086;2023-07-30T13:50:52;5.17;;;1.20;;
68800;SDS011;55784;50.734;7.086;2023-07-30T13:53:18;6.40;;;1.30;;
68800;SDS011;55784;50.734;7.086;2023-07-30T13:55:44;5.43;;;1.10;;
68800;SDS011;55784;50.734;7.086;2023-07-30T13:58:10;4.78;;;1.00;;
68800;SDS011;55784;50.734;7.086;2023-07-30T14:00:35;4.73;;;1.20;;
68800;SDS011;55784;50.734;7.086;2023-07-30T14:03:00;6.07;;;1.13;;
68800;SDS011;55784;50.734;7.086;2023-07-30T14:05:26;4.87;;;1.10;;
68800;SDS011;55784;50.734;7.086;2023-07-30T14:07:53;5.90;;;1.30;;
68800;SDS011;55784;50.734;7.086;2023-07-30T14:10:21;5.22;;;1.10;;
68800;SDS011;55784;50.734;7.086;2023-07-30T14:12:47;4.78;;;1.10;;
68800;SDS011;55784;50.734;7.086;2023-07-30T14:15:12;6.37;;;1.20;;
68800;SDS011;55784;50.734;7.086;2023-07-30T14:17:38;5.50;;;1.10;;
68800;SDS011;55784;50.734;7.086;2023-07-30T14:20:03;5.50;;;1.10;;
68800;SDS011;55784;50.734;7.086;2023-07-30T14:22:29;4.57;;;1.00;;
68800;SDS011;55784;50.734;7.086;2023-07-30T14:24:54;5.50;;;1.23;;
68800;SDS011;55784;50.734;7.086;2023-07-30T14:27:19;4.40;;;1.10;;
68800;SDS011;55784;50.734;7.086;2023-07-30T14:29:45;5.07;;;1.03;;
68800;SDS011;55784;50.734;7.086;2023-07-30T14:32:10;5.67;;;1.30;;
68800;SDS011;55784;50.734;7.086;2023-07-30T14:34:36;4.97;;;0.90;;
68800;SDS011;55784;50.734;7.086;2023-07-30T14:37:01;5.73;;;1.20;;
68800;SDS011;55784;50.734;7.086;2023-07-30T14:39:26;6.40;;;1.07;;
68800;SDS011;55784;50.734;7.086;2023-07-30T14:41:51;6.27;;;1.53;;
68800;SDS011;55784;50.734;7.086;2023-07-30T14:44:19;6.63;;;0.90;;
68800;SDS011;55784;50.734;7.086;2023-07-30T14:46:45;5.05;;;1.00;;
68800;SDS011;55784;50.734;7.086;2023-07-30T14:49:10;4.67;;;1.10;;